sensor_id;sensor_type;location;lat;lon;timestamp;P1;durP1;ratioP1;P2;durP2;ratioP2
10493;SDS011;5294;49.410;8.698;2022-09-09T00:02:04;3.37;;;2.50;;
10493;SDS011;5294;49.410;8.698;2022-09-09T00:04:34;2.80;;;2.30;;
10493;SDS011;5294;49.410;8.698;2022-09-09T00:07:05;3.50;;;2.50;;
10493;SDS011;5294;49.410;8.698;2022-09-09T00:09:38;2.80;;;2.27;;
10493;SDS011;5294;49.410;8.698;2022-09-09T00:17:12;3.13;;;2.67;;
10493;SDS011;5294;49.410;8.698;2022-09-09T00:27:46;3.53;;;2.50;;
10493;SDS011;5294;49.410;8.698;2022-09-09T00:32:44;3.07;;;2.50;;
10493;SDS011;5294;49.410;8.698;2022-09-09T00:35:18;2.80;;;2.43;;
10493;SDS011;5294;49.410;8.698;2022-09-09T00:37:47;2.77;;;2.57;;
10493;SDS011;5294;49.410;8.698;2022-09-09T00:42:50;2.60;;;2.40;;
10493;SDS011;5294;49.410;8.698;2022-09-09T00:48:08;3.40;;;2.33;;
10493;SDS011;5294;49.410;8.698;2022-09-09T00:50:50;4.87;;;2.70;;
10493;SDS011;5294;49.410;8.698;2022-09-09T00:53:41;2.97;;;2.63;;
10493;SDS011;5294;49.410;8.698;2022-09-09T00:56:12;3.83;;;2.50;;
10493;SDS011;5294;49.410;8.698;2022-09-09T00:58:40;2.57;;;2.30;;
10493;SDS011;5294;49.410;8.698;2022-09-09T01:01:11;2.77;;;2.57;;
10493;SDS011;5294;49.410;8.698;2022-09-09T01:03:56;4.03;;;2.67;;
10493;SDS011;5294;49.410;8.698;2022-09-09T01:06:31;3.10;;;2.37;;
10493;SDS011;5294;49.410;8.698;2022-09-09T01:12:09;2.63;;;2.43;;
10493;SDS011;5294;49.410;8.698;2022-09-09T01:17:17;2.77;;;2.57;;
10493;SDS011;5294;49.410;8.698;2022-09-09T01:25:01;4.43;;;2.80;;
10493;SDS011;5294;49.410;8.698;2022-09-09T01:27:28;2.60;;;2.40;;
10493;SDS011;5294;49.410;8.698;2022-09-09T01:29:54;3.77;;;2.47;;
10493;SDS011;5294;49.410;8.698;2022-09-09T01:32:40;4.03;;;2.40;;
10493;SDS011;5294;49.410;8.698;2022-09-09T01:35:08;2.67;;;2.23;;
10493;SDS011;5294;49.410;8.698;2022-09-09T01:37:38;4.30;;;2.40;;
10493;SDS011;5294;49.410;8.698;2022-09-09T01:40:04;2.60;;;2.40;;
10493;SDS011;5294;49.410;8.698;2022-09-09T01:42:33;3.20;;;2.43;;
10493;SDS011;5294;49.410;8.698;2022-09-09T01:44:59;5.40;;;2.80;;
10493;SDS011;5294;49.410;8.698;2022-09-09T01:47:25;3.60;;;2.50;;
10493;SDS011;5294;49.410;8.698;2022-09-09T01:49:51;3.03;;;2.73;;
10493;SDS011;5294;49.410;8.698;2022-09-09T01:52:17;3.60;;;2.67;;
10493;SDS011;5294;49.410;8.698;2022-09-09T01:54:43;3.90;;;2.67;;
10493;SDS011;5294;49.410;8.698;2022-09-09T01:57:23;2.93;;;2.27;;
10493;SDS011;5294;49.410;8.698;2022-09-09T02:02:30;3.93;;;2.57;;
10493;SDS011;5294;49.410;8.698;2022-09-09T02:05:04;3.10;;;2.60;;
10493;SDS011;5294;49.410;8.698;2022-09-09T02:07:41;4.17;;;2.40;;
10493;SDS011;5294;49.410;8.698;2022-09-09T02:12:34;3.00;;;2.33;;
10493;SDS011;5294;49.410;8.698;2022-09-09T02:15:06;2.83;;;2.13;;
10493;SDS011;5294;49.410;8.698;2022-09-09T02:17:34;3.90;;;2.60;;
10493;SDS011;5294;49.410;8.698;2022-09-09T02:20:08;5.50;;;2.60;;
10493;SDS011;5294;49.410;8.698;2022-09-09T02:22:34;4.70;;;2.40;;
10493;SDS011;5294;49.410;8.698;2022-09-09T02:25:01;3.23;;;2.10;;
10493;SDS011;5294;49.410;8.698;2022-09-09T02:27:28;2.87;;;2.10;;
10493;SDS011;5294;49.410;8.698;2022-09-09T02:29:57;3.93;;;2.67;;
10493;SDS011;5294;49.410;8.698;2022-09-09T02:32:23;3.50;;;2.40;;
10493;SDS011;5294;49.410;8.698;2022-09-09T02:34:51;3.40;;;2.23;;
10493;SDS011;5294;49.410;8.698;2022-09-09T02:37:20;2.97;;;2.47;;
10493;SDS011;5294;49.410;8.698;2022-09-09T02:39:47;3.57;;;2.50;;
10493;SDS011;5294;49.410;8.698;2022-09-09T02:42:13;3.97;;;2.13;;
10493;SDS011;5294;49.410;8.698;2022-09-09T02:44:42;2.60;;;2.40;;
10493;SDS011;5294;49.410;8.698;2022-09-09T02:49:48;4.87;;;2.30;;
10493;SDS011;5294;49.410;8.698;2022-09-09T02:52:22;2.93;;;2.37;;
10493;SDS011;5294;49.410;8.698;2022-09-09T02:54:52;4.00;;;2.43;;
10493;SDS011;5294;49.410;8.698;2022-09-09T02:57:22;3.33;;;2.50;;
10493;SDS011;5294;49.410;8.698;2022-09-09T02:59:49;2.80;;;2.23;;
10493;SDS011;5294;49.410;8.698;2022-09-09T03:02:17;4.20;;;2.40;;
10493;SDS011;5294;49.410;8.698;2022-09-09T03:04:44;4.17;;;2.57;;
10493;SDS011;5294;49.410;8.698;2022-09-09T03:07:15;3.10;;;2.23;;
10493;SDS011;5294;49.410;8.698;2022-09-09T03:09:42;2.60;;;2.40;;
10493;SDS011;5294;49.410;8.698;2022-09-09T03:12:10;3.77;;;2.40;;
10493;SDS011;5294;49.410;8.698;2022-09-09T03:14:37;2.40;;;2.10;;
10493;SDS011;5294;49.410;8.698;2022-09-09T03:17:06;2.40;;;1.80;;
10493;SDS011;5294;49.410;8.698;2022-09-09T03:19:34;2.77;;;1.77;;
10493;SDS011;5294;49.410;8.698;2022-09-09T03:22:01;2.80;;;2.00;;
10493;SDS011;5294;49.410;8.698;2022-09-09T03:24:29;2.93;;;1.80;;
10493;SDS011;5294;49.410;8.698;2022-09-09T03:26:55;4.17;;;1.93;;
10493;SDS011;5294;49.410;8.698;2022-09-09T03:29:22;2.47;;;1.70;;
10493;SDS011;5294;49.410;8.698;2022-09-09T03:31:50;4.20;;;1.90;;
10493;SDS011;5294;49.410;8.698;2022-09-09T03:34:16;2.40;;;1.63;;
10493;SDS011;5294;49.410;8.698;2022-09-09T03:36:42;2.77;;;1.67;;
10493;SDS011;5294;49.410;8.698;2022-09-09T03:39:13;3.53;;;1.83;;
10493;SDS011;5294;49.410;8.698;2022-09-09T03:41:39;3.53;;;1.90;;
10493;SDS011;5294;49.410;8.698;2022-09-09T03:44:05;3.87;;;2.10;;
10493;SDS011;5294;49.410;8.698;2022-09-09T03:46:31;3.13;;;1.57;;
10493;SDS011;5294;49.410;8.698;2022-09-09T03:48:59;2.20;;;1.40;;
10493;SDS011;5294;49.410;8.698;2022-09-09T03:51:28;4.00;;;1.67;;
10493;SDS011;5294;49.410;8.698;2022-09-09T03:53:54;1.70;;;1.60;;
10493;SDS011;5294;49.410;8.698;2022-09-09T03:56:21;4.80;;;1.60;;
10493;SDS011;5294;49.410;8.698;2022-09-09T03:58:47;2.83;;;1.27;;
10493;SDS011;5294;49.410;8.698;2022-09-09T04:01:14;2.20;;;1.40;;
10493;SDS011;5294;49.410;8.698;2022-09-09T04:03:42;2.63;;;1.60;;
10493;SDS011;5294;49.410;8.698;2022-09-09T04:06:08;2.43;;;1.50;;
10493;SDS011;5294;49.410;8.698;2022-09-09T04:08:38;2.60;;;1.57;;
10493;SDS011;5294;49.410;8.698;2022-09-09T04:11:05;3.47;;;1.50;;
10493;SDS011;5294;49.410;8.698;2022-09-09T04:13:34;1.30;;;1.13;;
10493;SDS011;5294;49.410;8.698;2022-09-09T04:16:01;1.57;;;1.33;;
10493;SDS011;5294;49.410;8.698;2022-09-09T04:18:31;2.53;;;1.67;;
10493;SDS011;5294;49.410;8.698;2022-09-09T04:20:59;2.40;;;1.47;;
10493;SDS011;5294;49.410;8.698;2022-09-09T04:23:28;1.17;;;1.10;;
10493;SDS011;5294;49.410;8.698;2022-09-09T04:25:55;2.87;;;1.47;;
10493;SDS011;5294;49.410;8.698;2022-09-09T04:28:22;3.17;;;1.60;;
10493;SDS011;5294;49.410;8.698;2022-09-09T04:30:49;2.90;;;1.60;;
10493;SDS011;5294;49.410;8.698;2022-09-09T04:33:18;2.10;;;1.13;;
10493;SDS011;5294;49.410;8.698;2022-09-09T04:35:45;1.30;;;1.00;;
10493;SDS011;5294;49.410;8.698;2022-09-09T04:38:12;2.23;;;1.20;;
10493;SDS011;5294;49.410;8.698;2022-09-09T04:40:46;1.43;;;1.27;;
10493;SDS011;5294;49.410;8.698;2022-09-09T04:43:15;2.67;;;1.20;;
10493;SDS011;5294;49.410;8.698;2022-09-09T04:45:41;2.10;;;1.40;;
10493;SDS011;5294;49.410;8.698;2022-09-09T04:48:07;1.50;;;1.10;;
10493;SDS011;5294;49.410;8.698;2022-09-09T04:50:36;1.90;;;1.47;;
10493;SDS011;5294;49.410;8.698;2022-09-09T04:53:05;1.40;;;1.30;;
10493;SDS011;5294;49.410;8.698;2022-09-09T04:55:33;2.47;;;1.70;;
10493;SDS011;5294;49.410;8.698;2022-09-09T04:58:06;2.27;;;1.20;;
10493;SDS011;5294;49.410;8.698;2022-09-09T05:00:35;2.93;;;1.50;;
10493;SDS011;5294;49.410;8.698;2022-09-09T05:03:04;1.57;;;1.20;;
10493;SDS011;5294;49.410;8.698;2022-09-09T05:05:31;3.03;;;1.60;;
10493;SDS011;5294;49.410;8.698;2022-09-09T05:08:03;1.67;;;1.57;;
10493;SDS011;5294;49.410;8.698;2022-09-09T05:10:30;1.67;;;1.50;;
10493;SDS011;5294;49.410;8.698;2022-09-09T05:12:55;2.67;;;1.00;;
10493;SDS011;5294;49.410;8.698;2022-09-09T05:15:22;2.43;;;1.53;;
10493;SDS011;5294;49.410;8.698;2022-09-09T05:17:48;1.87;;;1.17;;
10493;SDS011;5294;49.410;8.698;2022-09-09T05:20:16;3.17;;;1.83;;
10493;SDS011;5294;49.410;8.698;2022-09-09T05:22:44;3.70;;;1.67;;
10493;SDS011;5294;49.410;8.698;2022-09-09T05:25:13;1.30;;;1.17;;
10493;SDS011;5294;49.410;8.698;2022-09-09T05:27:39;2.97;;;1.50;;
10493;SDS011;5294;49.410;8.698;2022-09-09T05:30:05;1.93;;;1.43;;
10493;SDS011;5294;49.410;8.698;2022-09-09T05:32:32;4.13;;;1.53;;
10493;SDS011;5294;49.410;8.698;2022-09-09T05:34:58;2.00;;;1.40;;
10493;SDS011;5294;49.410;8.698;2022-09-09T05:37:24;2.00;;;1.50;;
10493;SDS011;5294;49.410;8.698;2022-09-09T05:39:50;2.47;;;1.63;;
10493;SDS011;5294;49.410;8.698;2022-09-09T05:42:16;2.50;;;1.47;;
10493;SDS011;5294;49.410;8.698;2022-09-09T05:44:42;1.70;;;1.27;;
10493;SDS011;5294;49.410;8.698;2022-09-09T05:47:09;22.60;;;3.70;;
10493;SDS011;5294;49.410;8.698;2022-09-09T05:49:38;20.63;;;4.17;;
10493;SDS011;5294;49.410;8.698;2022-09-09T05:52:04;39.03;;;6.00;;
10493;SDS011;5294;49.410;8.698;2022-09-09T05:54:31;19.13;;;3.23;;
10493;SDS011;5294;49.410;8.698;2022-09-09T05:56:57;4.30;;;1.80;;
10493;SDS011;5294;49.410;8.698;2022-09-09T05:59:25;40.57;;;6.40;;
10493;SDS011;5294;49.410;8.698;2022-09-09T06:01:52;23.10;;;3.63;;
10493;SDS011;5294;49.410;8.698;2022-09-09T06:04:18;11.30;;;3.00;;
10493;SDS011;5294;49.410;8.698;2022-09-09T06:06:49;17.83;;;3.23;;
10493;SDS011;5294;49.410;8.698;2022-09-09T06:09:15;12.53;;;2.80;;
10493;SDS011;5294;49.410;8.698;2022-09-09T06:11:41;4.27;;;2.30;;
10493;SDS011;5294;49.410;8.698;2022-09-09T06:14:10;2.57;;;1.80;;
10493;SDS011;5294;49.410;8.698;2022-09-09T06:16:36;16.00;;;3.10;;
10493;SDS011;5294;49.410;8.698;2022-09-09T06:19:08;14.27;;;2.80;;
10493;SDS011;5294;49.410;8.698;2022-09-09T06:21:35;5.33;;;1.80;;
10493;SDS011;5294;49.410;8.698;2022-09-09T06:24:05;14.40;;;3.00;;
10493;SDS011;5294;49.410;8.698;2022-09-09T06:26:35;5.07;;;2.03;;
10493;SDS011;5294;49.410;8.698;2022-09-09T06:29:02;11.67;;;2.70;;
10493;SDS011;5294;49.410;8.698;2022-09-09T06:31:32;4.33;;;2.60;;
10493;SDS011;5294;49.410;8.698;2022-09-09T06:33:59;5.13;;;1.93;;
10493;SDS011;5294;49.410;8.698;2022-09-09T06:36:31;6.47;;;3.13;;
10493;SDS011;5294;49.410;8.698;2022-09-09T06:39:01;2.13;;;1.30;;
10493;SDS011;5294;49.410;8.698;2022-09-09T06:41:28;7.40;;;2.00;;
10493;SDS011;5294;49.410;8.698;2022-09-09T06:43:57;4.03;;;2.03;;
10493;SDS011;5294;49.410;8.698;2022-09-09T06:46:24;4.37;;;2.40;;
10493;SDS011;5294;49.410;8.698;2022-09-09T06:48:58;6.27;;;2.77;;
10493;SDS011;5294;49.410;8.698;2022-09-09T06:51:31;6.70;;;2.87;;
10493;SDS011;5294;49.410;8.698;2022-09-09T06:54:00;3.47;;;2.73;;
10493;SDS011;5294;49.410;8.698;2022-09-09T06:56:31;10.43;;;2.87;;
10493;SDS011;5294;49.410;8.698;2022-09-09T06:58:58;84.97;;;11.57;;
10493;SDS011;5294;49.410;8.698;2022-09-09T07:01:28;133.43;;;16.40;;
10493;SDS011;5294;49.410;8.698;2022-09-09T07:03:55;22.20;;;4.40;;
10493;SDS011;5294;49.410;8.698;2022-09-09T07:06:26;35.83;;;7.40;;
10493;SDS011;5294;49.410;8.698;2022-09-09T07:08:56;63.83;;;7.93;;
10493;SDS011;5294;49.410;8.698;2022-09-09T07:11:29;11.57;;;2.80;;
10493;SDS011;5294;49.410;8.698;2022-09-09T07:13:56;42.93;;;7.00;;
10493;SDS011;5294;49.410;8.698;2022-09-09T07:16:25;26.70;;;5.27;;
10493;SDS011;5294;49.410;8.698;2022-09-09T07:18:52;73.90;;;8.73;;
10493;SDS011;5294;49.410;8.698;2022-09-09T07:21:22;16.40;;;3.50;;
10493;SDS011;5294;49.410;8.698;2022-09-09T07:23:51;5.20;;;2.93;;
10493;SDS011;5294;49.410;8.698;2022-09-09T07:26:18;5.40;;;2.20;;
10493;SDS011;5294;49.410;8.698;2022-09-09T07:28:44;28.13;;;5.50;;
10493;SDS011;5294;49.410;8.698;2022-09-09T07:31:14;10.83;;;3.07;;
10493;SDS011;5294;49.410;8.698;2022-09-09T07:33:41;10.63;;;2.97;;
10493;SDS011;5294;49.410;8.698;2022-09-09T07:38:41;17.70;;;3.90;;
10493;SDS011;5294;49.410;8.698;2022-09-09T07:41:09;9.93;;;2.80;;
10493;SDS011;5294;49.410;8.698;2022-09-09T07:43:42;40.20;;;6.60;;
10493;SDS011;5294;49.410;8.698;2022-09-09T07:46:09;12.17;;;3.60;;
10493;SDS011;5294;49.410;8.698;2022-09-09T07:48:35;8.83;;;2.73;;
10493;SDS011;5294;49.410;8.698;2022-09-09T07:53:31;5.13;;;2.87;;
10493;SDS011;5294;49.410;8.698;2022-09-09T07:56:07;7.70;;;2.90;;
10493;SDS011;5294;49.410;8.698;2022-09-09T07:58:34;5.10;;;2.13;;
10493;SDS011;5294;49.410;8.698;2022-09-09T08:01:00;3.77;;;2.30;;
10493;SDS011;5294;49.410;8.698;2022-09-09T08:03:31;6.13;;;2.50;;
10493;SDS011;5294;49.410;8.698;2022-09-09T08:05:59;10.17;;;3.23;;
10493;SDS011;5294;49.410;8.698;2022-09-09T08:08:26;4.40;;;2.10;;
10493;SDS011;5294;49.410;8.698;2022-09-09T08:10:55;4.27;;;2.40;;
10493;SDS011;5294;49.410;8.698;2022-09-09T08:13:26;4.20;;;2.60;;
10493;SDS011;5294;49.410;8.698;2022-09-09T08:15:52;13.77;;;3.30;;
10493;SDS011;5294;49.410;8.698;2022-09-09T08:18:18;9.43;;;2.77;;
10493;SDS011;5294;49.410;8.698;2022-09-09T08:20:44;25.07;;;4.60;;
10493;SDS011;5294;49.410;8.698;2022-09-09T08:23:10;7.17;;;3.10;;
10493;SDS011;5294;49.410;8.698;2022-09-09T08:25:38;3.80;;;2.63;;
10493;SDS011;5294;49.410;8.698;2022-09-09T08:28:07;4.30;;;2.60;;
10493;SDS011;5294;49.410;8.698;2022-09-09T08:30:35;10.50;;;3.10;;
10493;SDS011;5294;49.410;8.698;2022-09-09T08:33:02;4.23;;;2.30;;
10493;SDS011;5294;49.410;8.698;2022-09-09T08:35:28;7.50;;;2.27;;
10493;SDS011;5294;49.410;8.698;2022-09-09T08:37:57;18.60;;;4.00;;
10493;SDS011;5294;49.410;8.698;2022-09-09T08:40:25;4.67;;;2.00;;
10493;SDS011;5294;49.410;8.698;2022-09-09T08:42:54;10.80;;;3.27;;
10493;SDS011;5294;49.410;8.698;2022-09-09T08:45:31;12.20;;;3.30;;
10493;SDS011;5294;49.410;8.698;2022-09-09T08:48:14;5.63;;;2.70;;
10493;SDS011;5294;49.410;8.698;2022-09-09T08:50:46;5.57;;;2.30;;
10493;SDS011;5294;49.410;8.698;2022-09-09T08:53:19;5.33;;;1.97;;
10493;SDS011;5294;49.410;8.698;2022-09-09T08:55:47;8.53;;;2.83;;
10493;SDS011;5294;49.410;8.698;2022-09-09T08:58:16;4.90;;;2.23;;
10493;SDS011;5294;49.410;8.698;2022-09-09T09:06:10;4.07;;;2.40;;
10493;SDS011;5294;49.410;8.698;2022-09-09T09:08:43;5.23;;;2.33;;
10493;SDS011;5294;49.410;8.698;2022-09-09T09:11:12;7.57;;;2.80;;
10493;SDS011;5294;49.410;8.698;2022-09-09T09:13:58;20.23;;;3.93;;
10493;SDS011;5294;49.410;8.698;2022-09-09T09:16:32;10.23;;;3.10;;
10493;SDS011;5294;49.410;8.698;2022-09-09T09:19:01;8.63;;;2.50;;
10493;SDS011;5294;49.410;8.698;2022-09-09T09:21:34;21.87;;;3.77;;
10493;SDS011;5294;49.410;8.698;2022-09-09T09:24:02;14.63;;;3.00;;
10493;SDS011;5294;49.410;8.698;2022-09-09T09:26:33;5.50;;;2.57;;
10493;SDS011;5294;49.410;8.698;2022-09-09T09:29:01;5.20;;;2.87;;
10493;SDS011;5294;49.410;8.698;2022-09-09T09:31:31;24.07;;;4.50;;
10493;SDS011;5294;49.410;8.698;2022-09-09T09:33:57;34.10;;;5.53;;
10493;SDS011;5294;49.410;8.698;2022-09-09T09:39:27;9.53;;;2.10;;
10493;SDS011;5294;49.410;8.698;2022-09-09T09:41:53;3.90;;;1.80;;
10493;SDS011;5294;49.410;8.698;2022-09-09T09:44:26;6.03;;;2.63;;
10493;SDS011;5294;49.410;8.698;2022-09-09T09:46:53;3.87;;;2.07;;
10493;SDS011;5294;49.410;8.698;2022-09-09T09:49:19;17.27;;;3.27;;
10493;SDS011;5294;49.410;8.698;2022-09-09T09:51:45;6.00;;;2.50;;
10493;SDS011;5294;49.410;8.698;2022-09-09T09:56:41;23.47;;;4.37;;
10493;SDS011;5294;49.410;8.698;2022-09-09T09:59:59;5.50;;;2.43;;
10493;SDS011;5294;49.410;8.698;2022-09-09T10:01:54;5.70;;;2.40;;
10493;SDS011;5294;49.410;8.698;2022-09-09T10:04:31;4.63;;;2.83;;
10493;SDS011;5294;49.410;8.698;2022-09-09T10:06:58;4.93;;;2.60;;
10493;SDS011;5294;49.410;8.698;2022-09-09T10:09:30;4.37;;;2.80;;
10493;SDS011;5294;49.410;8.698;2022-09-09T10:14:26;5.50;;;2.73;;
10493;SDS011;5294;49.410;8.698;2022-09-09T10:19:32;3.53;;;2.50;;
10493;SDS011;5294;49.410;8.698;2022-09-09T10:30:00;3.23;;;1.93;;
10493;SDS011;5294;49.410;8.698;2022-09-09T10:43:02;4.27;;;2.37;;
10493;SDS011;5294;49.410;8.698;2022-09-09T10:50:36;6.03;;;2.67;;
10493;SDS011;5294;49.410;8.698;2022-09-09T10:55:43;15.77;;;3.13;;
10493;SDS011;5294;49.410;8.698;2022-09-09T10:58:13;6.03;;;2.40;;
10493;SDS011;5294;49.410;8.698;2022-09-09T11:00:43;15.35;;;3.03;;
10493;SDS011;5294;49.410;8.698;2022-09-09T11:03:21;23.20;;;3.63;;
10493;SDS011;5294;49.410;8.698;2022-09-09T11:08:18;2.22;;;1.63;;
10493;SDS011;5294;49.410;8.698;2022-09-09T11:10:50;4.72;;;1.63;;
10493;SDS011;5294;49.410;8.698;2022-09-09T11:14:03;2.85;;;1.52;;
10493;SDS011;5294;49.410;8.698;2022-09-09T11:16:17;3.47;;;1.80;;
10493;SDS011;5294;49.410;8.698;2022-09-09T11:18:48;12.70;;;2.67;;
10493;SDS011;5294;49.410;8.698;2022-09-09T11:21:25;4.00;;;1.90;;
10493;SDS011;5294;49.410;8.698;2022-09-09T11:23:56;5.25;;;2.22;;
10493;SDS011;5294;49.410;8.698;2022-09-09T11:26:33;3.00;;;1.85;;
10493;SDS011;5294;49.410;8.698;2022-09-09T11:41:47;1.90;;;1.80;;
10493;SDS011;5294;49.410;8.698;2022-09-09T11:44:17;3.72;;;1.92;;
10493;SDS011;5294;49.410;8.698;2022-09-09T11:46:43;3.73;;;1.87;;
10493;SDS011;5294;49.410;8.698;2022-09-09T11:49:25;3.93;;;2.20;;
10493;SDS011;5294;49.410;8.698;2022-09-09T11:51:55;5.13;;;2.38;;
10493;SDS011;5294;49.410;8.698;2022-09-09T11:54:30;5.67;;;2.07;;
10493;SDS011;5294;49.410;8.698;2022-09-09T11:56:57;4.07;;;1.77;;
10493;SDS011;5294;49.410;8.698;2022-09-09T11:59:24;3.93;;;2.37;;
10493;SDS011;5294;49.410;8.698;2022-09-09T12:02:03;4.43;;;2.17;;
10493;SDS011;5294;49.410;8.698;2022-09-09T12:04:42;3.67;;;1.95;;
10493;SDS011;5294;49.410;8.698;2022-09-09T12:09:43;15.02;;;3.67;;
10493;SDS011;5294;49.410;8.698;2022-09-09T12:19:41;8.87;;;3.10;;
10493;SDS011;5294;49.410;8.698;2022-09-09T12:22:11;3.40;;;1.83;;
10493;SDS011;5294;49.410;8.698;2022-09-09T12:24:51;3.47;;;2.50;;
10493;SDS011;5294;49.410;8.698;2022-09-09T12:27:25;3.53;;;2.20;;
10493;SDS011;5294;49.410;8.698;2022-09-09T12:29:59;5.43;;;1.97;;
10493;SDS011;5294;49.410;8.698;2022-09-09T12:32:27;5.63;;;2.10;;
10493;SDS011;5294;49.410;8.698;2022-09-09T12:34:58;4.53;;;1.90;;
10493;SDS011;5294;49.410;8.698;2022-09-09T12:40:03;5.97;;;2.27;;
10493;SDS011;5294;49.410;8.698;2022-09-09T12:42:30;5.60;;;2.67;;
10493;SDS011;5294;49.410;8.698;2022-09-09T12:45:00;6.67;;;1.87;;
10493;SDS011;5294;49.410;8.698;2022-09-09T12:47:38;4.63;;;1.70;;
10493;SDS011;5294;49.410;8.698;2022-09-09T12:52:51;8.45;;;2.42;;
10493;SDS011;5294;49.410;8.698;2022-09-09T12:55:21;5.28;;;2.13;;
10493;SDS011;5294;49.410;8.698;2022-09-09T12:57:50;3.13;;;1.87;;
10493;SDS011;5294;49.410;8.698;2022-09-09T13:02:55;4.15;;;1.92;;
10493;SDS011;5294;49.410;8.698;2022-09-09T13:05:26;5.77;;;2.00;;
10493;SDS011;5294;49.410;8.698;2022-09-09T13:08:00;9.87;;;3.10;;
10493;SDS011;5294;49.410;8.698;2022-09-09T13:10:27;6.53;;;2.70;;
10493;SDS011;5294;49.410;8.698;2022-09-09T13:12:54;3.83;;;2.30;;
10493;SDS011;5294;49.410;8.698;2022-09-09T13:15:22;5.93;;;2.37;;
10493;SDS011;5294;49.410;8.698;2022-09-09T13:17:50;5.63;;;2.00;;
10493;SDS011;5294;49.410;8.698;2022-09-09T13:20:18;3.63;;;1.73;;
10493;SDS011;5294;49.410;8.698;2022-09-09T13:22:47;3.30;;;1.80;;
10493;SDS011;5294;49.410;8.698;2022-09-09T13:25:18;3.30;;;2.23;;
10493;SDS011;5294;49.410;8.698;2022-09-09T13:27:56;3.53;;;2.00;;
10493;SDS011;5294;49.410;8.698;2022-09-09T13:35:27;3.50;;;1.73;;
10493;SDS011;5294;49.410;8.698;2022-09-09T13:37:54;3.40;;;1.60;;
10493;SDS011;5294;49.410;8.698;2022-09-09T13:40:22;1.80;;;1.70;;
10493;SDS011;5294;49.410;8.698;2022-09-09T13:42:52;2.40;;;1.23;;
10493;SDS011;5294;49.410;8.698;2022-09-09T13:45:22;1.77;;;1.10;;
10493;SDS011;5294;49.410;8.698;2022-09-09T13:47:51;1.83;;;1.07;;
10493;SDS011;5294;49.410;8.698;2022-09-09T13:50:21;1.50;;;0.80;;
10493;SDS011;5294;49.410;8.698;2022-09-09T13:52:48;0.50;;;0.50;;
10493;SDS011;5294;49.410;8.698;2022-09-09T13:55:16;1.20;;;1.03;;
10493;SDS011;5294;49.410;8.698;2022-09-09T13:57:52;1.93;;;1.50;;
10493;SDS011;5294;49.410;8.698;2022-09-09T14:00:18;2.00;;;1.10;;
10493;SDS011;5294;49.410;8.698;2022-09-09T14:02:45;4.23;;;1.43;;
10493;SDS011;5294;49.410;8.698;2022-09-09T14:05:11;1.37;;;0.90;;
10493;SDS011;5294;49.410;8.698;2022-09-09T14:07:37;3.40;;;1.97;;
10493;SDS011;5294;49.410;8.698;2022-09-09T14:10:07;1.70;;;1.60;;
10493;SDS011;5294;49.410;8.698;2022-09-09T14:12:33;2.73;;;1.30;;
10493;SDS011;5294;49.410;8.698;2022-09-09T14:15:01;2.17;;;1.43;;
10493;SDS011;5294;49.410;8.698;2022-09-09T14:17:27;2.00;;;1.13;;
10493;SDS011;5294;49.410;8.698;2022-09-09T14:19:56;1.93;;;1.53;;
10493;SDS011;5294;49.410;8.698;2022-09-09T14:22:22;1.93;;;1.07;;
10493;SDS011;5294;49.410;8.698;2022-09-09T14:24:48;2.30;;;1.27;;
10493;SDS011;5294;49.410;8.698;2022-09-09T14:27:16;2.43;;;1.07;;
10493;SDS011;5294;49.410;8.698;2022-09-09T14:29:44;1.60;;;1.40;;
10493;SDS011;5294;49.410;8.698;2022-09-09T14:32:12;2.47;;;1.40;;
10493;SDS011;5294;49.410;8.698;2022-09-09T14:34:38;2.30;;;1.30;;
10493;SDS011;5294;49.410;8.698;2022-09-09T14:37:05;1.33;;;1.23;;
10493;SDS011;5294;49.410;8.698;2022-09-09T14:39:31;2.23;;;1.20;;
10493;SDS011;5294;49.410;8.698;2022-09-09T14:41:59;2.30;;;1.20;;
10493;SDS011;5294;49.410;8.698;2022-09-09T14:44:26;1.97;;;1.30;;
10493;SDS011;5294;49.410;8.698;2022-09-09T14:46:51;2.03;;;1.40;;
10493;SDS011;5294;49.410;8.698;2022-09-09T14:49:19;1.23;;;0.93;;
10493;SDS011;5294;49.410;8.698;2022-09-09T14:51:45;2.37;;;1.60;;
10493;SDS011;5294;49.410;8.698;2022-09-09T14:54:11;2.83;;;1.50;;
10493;SDS011;5294;49.410;8.698;2022-09-09T14:56:40;3.17;;;1.40;;
10493;SDS011;5294;49.410;8.698;2022-09-09T14:59:06;1.77;;;1.60;;
10493;SDS011;5294;49.410;8.698;2022-09-09T15:01:32;3.77;;;1.60;;
10493;SDS011;5294;49.410;8.698;2022-09-09T15:03:59;2.83;;;1.50;;
10493;SDS011;5294;49.410;8.698;2022-09-09T15:06:29;3.27;;;1.73;;
10493;SDS011;5294;49.410;8.698;2022-09-09T15:08:55;1.77;;;1.40;;
10493;SDS011;5294;49.410;8.698;2022-09-09T15:11:25;1.60;;;1.40;;
10493;SDS011;5294;49.410;8.698;2022-09-09T15:13:52;3.93;;;1.60;;
10493;SDS011;5294;49.410;8.698;2022-09-09T15:16:22;2.83;;;1.43;;
10493;SDS011;5294;49.410;8.698;2022-09-09T15:18:50;1.67;;;1.50;;
10493;SDS011;5294;49.410;8.698;2022-09-09T15:21:20;2.23;;;1.53;;
10493;SDS011;5294;49.410;8.698;2022-09-09T15:23:47;2.67;;;1.30;;
10493;SDS011;5294;49.410;8.698;2022-09-09T15:26:13;3.73;;;2.10;;
10493;SDS011;5294;49.410;8.698;2022-09-09T15:28:40;2.60;;;1.67;;
10493;SDS011;5294;49.410;8.698;2022-09-09T15:33:32;2.20;;;2.00;;
10493;SDS011;5294;49.410;8.698;2022-09-09T15:35:59;2.50;;;1.97;;
10493;SDS011;5294;49.410;8.698;2022-09-09T15:38:25;4.20;;;2.03;;
10493;SDS011;5294;49.410;8.698;2022-09-09T15:40:55;7.50;;;2.83;;
10493;SDS011;5294;49.410;8.698;2022-09-09T15:43:21;4.67;;;1.90;;
10493;SDS011;5294;49.410;8.698;2022-09-09T15:45:52;2.13;;;1.50;;
10493;SDS011;5294;49.410;8.698;2022-09-09T15:48:29;2.93;;;1.50;;
10493;SDS011;5294;49.410;8.698;2022-09-09T15:51:05;3.73;;;1.90;;
10493;SDS011;5294;49.410;8.698;2022-09-09T15:53:34;5.73;;;2.37;;
10493;SDS011;5294;49.410;8.698;2022-09-09T15:56:00;3.43;;;2.00;;
10493;SDS011;5294;49.410;8.698;2022-09-09T15:58:29;1.87;;;1.73;;
10493;SDS011;5294;49.410;8.698;2022-09-09T16:01:01;3.30;;;1.30;;
10493;SDS011;5294;49.410;8.698;2022-09-09T16:03:27;2.40;;;1.80;;
10493;SDS011;5294;49.410;8.698;2022-09-09T16:05:56;2.00;;;1.47;;
10493;SDS011;5294;49.410;8.698;2022-09-09T16:08:24;3.00;;;1.50;;
10493;SDS011;5294;49.410;8.698;2022-09-09T16:10:50;1.70;;;1.27;;
10493;SDS011;5294;49.410;8.698;2022-09-09T16:13:16;1.97;;;1.37;;
10493;SDS011;5294;49.410;8.698;2022-09-09T16:15:42;1.93;;;1.10;;
10493;SDS011;5294;49.410;8.698;2022-09-09T16:18:08;2.80;;;1.00;;
10493;SDS011;5294;49.410;8.698;2022-09-09T16:20:34;1.40;;;0.87;;
10493;SDS011;5294;49.410;8.698;2022-09-09T16:23:00;1.07;;;1.00;;
10493;SDS011;5294;49.410;8.698;2022-09-09T16:25:26;1.33;;;1.10;;
10493;SDS011;5294;49.410;8.698;2022-09-09T16:27:52;2.03;;;1.60;;
10493;SDS011;5294;49.410;8.698;2022-09-09T16:30:18;2.40;;;1.27;;
10493;SDS011;5294;49.410;8.698;2022-09-09T16:32:46;3.07;;;1.83;;
10493;SDS011;5294;49.410;8.698;2022-09-09T16:35:14;2.50;;;1.80;;
10493;SDS011;5294;49.410;8.698;2022-09-09T16:37:40;1.93;;;1.67;;
10493;SDS011;5294;49.410;8.698;2022-09-09T16:40:07;2.30;;;2.10;;
10493;SDS011;5294;49.410;8.698;2022-09-09T16:42:38;3.13;;;2.30;;
10493;SDS011;5294;49.410;8.698;2022-09-09T16:45:07;2.30;;;2.10;;
10493;SDS011;5294;49.410;8.698;2022-09-09T16:47:35;3.70;;;2.87;;
10493;SDS011;5294;49.410;8.698;2022-09-09T16:50:01;4.90;;;2.47;;
10493;SDS011;5294;49.410;8.698;2022-09-09T16:52:27;3.07;;;2.30;;
10493;SDS011;5294;49.410;8.698;2022-09-09T16:54:53;2.73;;;1.77;;
10493;SDS011;5294;49.410;8.698;2022-09-09T16:57:19;1.90;;;1.73;;
10493;SDS011;5294;49.410;8.698;2022-09-09T16:59:47;1.93;;;1.37;;
10493;SDS011;5294;49.410;8.698;2022-09-09T17:02:14;2.23;;;1.90;;
10493;SDS011;5294;49.410;8.698;2022-09-09T17:04:40;2.80;;;2.60;;
10493;SDS011;5294;49.410;8.698;2022-09-09T17:07:08;4.50;;;2.07;;
10493;SDS011;5294;49.410;8.698;2022-09-09T17:09:35;3.10;;;1.77;;
10493;SDS011;5294;49.410;8.698;2022-09-09T17:12:05;2.67;;;2.00;;
10493;SDS011;5294;49.410;8.698;2022-09-09T17:14:33;2.47;;;1.80;;
10493;SDS011;5294;49.410;8.698;2022-09-09T17:16:59;2.53;;;1.93;;
10493;SDS011;5294;49.410;8.698;2022-09-09T17:19:31;2.93;;;2.37;;